createdAt,value
2022-10-12T00:02:54.411Z,98.60
2022-10-12T00:06:06.376Z,98.60
2022-10-12T00:09:09.897Z,98.60
2022-10-12T00:12:12.153Z,98.70
2022-10-12T00:15:14.247Z,98.70
2022-10-12T00:18:16.655Z,98.60
2022-10-12T00:21:20.155Z,98.80
2022-10-12T00:24:22.262Z,98.60
2022-10-12T00:27:24.492Z,98.70
2022-10-12T00:30:26.902Z,98.60
2022-10-12T00:33:29.692Z,98.60
2022-10-12T00:36:35.260Z,98.40
2022-10-12T00:39:37.663Z,98.50
2022-10-12T00:42:43.826Z,98.50
2022-10-12T00:45:45.856Z,98.40
2022-10-12T00:48:52.470Z,98.50
2022-10-12T00:52:00.406Z,98.40
2022-10-12T00:55:03.254Z,98.40
2022-10-12T00:58:08.343Z,98.40
2022-10-12T01:01:12.141Z,98.30
2022-10-12T01:04:14.464Z,98.20
2022-10-12T01:07:16.742Z,98.30
2022-10-12T01:10:19.514Z,98.30
2022-10-12T01:13:21.787Z,98.30
2022-10-12T01:17:11.826Z,98.20
2022-10-12T01:20:47.668Z,98.30
2022-10-12T01:24:01.447Z,98.40
2022-10-12T01:27:27.848Z,98.40
2022-10-12T01:30:36.389Z,98.70
2022-10-12T01:33:45.755Z,98.50
2022-10-12T01:37:00.827Z,98.50
2022-10-12T01:40:13.886Z,98.50
2022-10-12T01:43:20.594Z,98.50
2022-10-12T01:46:23.877Z,98.50
2022-10-12T01:49:30.556Z,98.50
2022-10-12T01:52:43.575Z,98.50
2022-10-12T01:56:18.396Z,98.50
2022-10-12T01:59:29.476Z,98.50
2022-10-12T02:02:37.842Z,98.60
2022-10-12T02:06:02.578Z,98.60
2022-10-12T02:09:13.531Z,98.70
2022-10-12T02:12:21.110Z,98.70
2022-10-12T02:15:26.860Z,98.70
2022-10-12T02:18:29.773Z,98.60
2022-10-12T02:21:34.268Z,98.60
2022-10-12T02:24:39.927Z,98.60
2022-10-12T02:27:46.311Z,98.70
2022-10-12T02:31:09.541Z,98.70
2022-10-12T02:34:43.910Z,98.80
2022-10-12T02:37:51.441Z,98.90
2022-10-12T02:41:01.539Z,99.00
2022-10-12T02:44:08.908Z,98.90
2022-10-12T02:47:13.026Z,98.90
2022-10-12T02:50:17.453Z,99.00
2022-10-12T02:53:19.600Z,99.00
2022-10-12T02:56:21.744Z,99.00
2022-10-12T02:59:23.775Z,99.00
2022-10-12T03:02:25.914Z,99.00
2022-10-12T03:05:27.921Z,99.20
2022-10-12T03:08:30.034Z,99.00
2022-10-12T03:11:32.478Z,99.00
2022-10-12T03:14:35.345Z,99.10
2022-10-12T03:17:37.806Z,99.00
2022-10-12T03:20:40.020Z,99.00
2022-10-12T03:23:42.098Z,99.10
2022-10-12T03:26:44.270Z,99.00
2022-10-12T03:29:46.417Z,99.00
2022-10-12T03:32:48.812Z,99.00
2022-10-12T03:35:50.852Z,99.00
2022-10-12T03:38:52.923Z,99.20
2022-10-12T03:41:54.951Z,99.30
2022-10-12T03:44:56.998Z,99.30
2022-10-12T03:48:03.719Z,99.50
2022-10-12T03:51:06.950Z,99.50
2022-10-12T03:54:09.005Z,99.50
2022-10-12T03:57:11.992Z,99.50
2022-10-12T04:00:14.518Z,99.40
2022-10-12T04:03:16.851Z,99.70
2022-10-12T04:06:18.879Z,99.90
2022-10-12T04:09:20.937Z,99.80
2022-10-12T04:12:23.049Z,99.90
2022-10-12T04:15:44.132Z,99.90
2022-10-12T04:18:53.156Z,99.90
2022-10-12T04:21:55.379Z,99.90
2022-10-12T04:24:57.495Z,99.90
2022-10-12T04:28:00.503Z,99.90
2022-10-12T04:31:05.486Z,99.90
2022-10-12T04:34:07.742Z,99.90
2022-10-12T04:37:09.714Z,99.90
2022-10-12T04:40:13.392Z,99.90
2022-10-12T04:43:16.589Z,99.90
2022-10-12T04:46:18.585Z,99.90
2022-10-12T04:49:20.649Z,99.90
2022-10-12T04:52:24.516Z,99.90
2022-10-12T04:55:27.055Z,99.90
2022-10-12T04:58:29.070Z,99.90
2022-10-12T05:01:31.321Z,99.90
2022-10-12T05:04:36.369Z,99.90
2022-10-12T05:07:38.650Z,99.90
2022-10-12T05:10:41.330Z,99.90
2022-10-12T05:13:43.389Z,99.90
2022-10-12T05:16:45.503Z,99.90
2022-10-12T05:19:47.664Z,99.90
2022-10-12T05:22:49.820Z,99.90
2022-10-12T05:25:54.181Z,99.90
2022-10-12T05:28:56.274Z,99.90
2022-10-12T05:31:58.325Z,99.90
2022-10-12T05:35:00.800Z,99.90
2022-10-12T05:38:02.820Z,99.90
2022-10-12T05:41:05.579Z,99.90
2022-10-12T05:44:19.352Z,99.90
2022-10-12T05:47:23.167Z,99.90
2022-10-12T05:50:25.440Z,99.90
2022-10-12T05:53:28.236Z,99.90
2022-10-12T05:56:30.473Z,99.90
2022-10-12T05:59:32.501Z,99.90
2022-10-12T06:02:35.192Z,99.90
2022-10-12T06:05:37.486Z,99.90
2022-10-12T06:08:39.503Z,99.90
2022-10-12T06:11:41.924Z,99.90
2022-10-12T06:14:44.121Z,99.90
2022-10-12T06:17:46.298Z,99.90
2022-10-12T06:21:08.673Z,99.90
2022-10-12T06:24:15.957Z,99.90
2022-10-12T06:27:20.045Z,99.90
2022-10-12T06:30:22.201Z,99.90
2022-10-12T06:33:25.090Z,99.90
2022-10-12T06:36:27.345Z,99.90
2022-10-12T06:39:29.482Z,99.90
2022-10-12T06:42:31.909Z,99.90
2022-10-12T06:45:34.723Z,99.90
2022-10-12T06:48:36.963Z,99.90
2022-10-12T06:51:39.277Z,99.90
2022-10-12T06:54:41.583Z,99.90
2022-10-12T06:57:43.795Z,99.90
2022-10-12T07:00:46.135Z,99.90
2022-10-12T07:03:48.398Z,99.90
2022-10-12T07:06:50.567Z,99.90
2022-10-12T07:09:52.907Z,99.90
2022-10-12T07:12:56.894Z,99.90
2022-10-12T07:15:59.543Z,99.30
2022-10-12T07:19:01.619Z,98.50
2022-10-12T07:22:04.761Z,96.30
2022-10-12T07:25:07.944Z,95.40
2022-10-12T07:28:12.732Z,94.50
2022-10-12T07:31:20.940Z,93.20
2022-10-12T07:34:23.332Z,91.30
2022-10-12T07:37:25.512Z,91.70
2022-10-12T07:40:27.614Z,90.20
2022-10-12T07:43:30.732Z,88.40
2022-10-12T07:46:34.152Z,87.70
2022-10-12T07:49:36.773Z,83.20
2022-10-12T07:52:39.168Z,80.40
2022-10-12T07:55:41.447Z,77.50
2022-10-12T07:58:55.438Z,79.10
2022-10-12T08:01:57.885Z,77.20
2022-10-12T08:04:59.997Z,74.40
2022-10-12T08:08:02.229Z,71.50
2022-10-12T08:11:05.707Z,72.20
2022-10-12T08:14:14.816Z,69.60
2022-10-12T08:17:17.068Z,68.40
2022-10-12T08:20:19.205Z,68.80
2022-10-12T08:23:21.431Z,67.90
2022-10-12T08:26:23.539Z,63.50
2022-10-12T08:29:25.693Z,66.70
2022-10-12T08:32:27.830Z,62.10
2022-10-12T08:35:29.869Z,62.60
2022-10-12T08:38:32.192Z,58.10
2022-10-12T08:41:58.721Z,60.10
2022-10-12T08:45:10.395Z,56.40
2022-10-12T08:48:47.417Z,54.70
2022-10-12T08:52:00.989Z,53.70
2022-10-12T08:55:17.280Z,53.00
2022-10-12T08:58:22.733Z,50.80
2022-10-12T09:01:37.601Z,50.90
2022-10-12T09:04:54.623Z,49.80
2022-10-12T09:08:04.189Z,48.40
2022-10-12T09:11:40.351Z,51.60
2022-10-12T09:14:43.566Z,49.40
2022-10-12T09:17:55.799Z,49.60
2022-10-12T09:20:59.571Z,46.40
2022-10-12T09:24:03.904Z,47.50
2022-10-12T09:27:25.273Z,47.70
2022-10-12T09:30:28.526Z,45.90
2022-10-12T09:33:51.175Z,45.50
2022-10-12T09:36:55.679Z,44.30
2022-10-12T09:39:58.745Z,45.00
2022-10-12T09:43:03.305Z,45.20
2022-10-12T09:46:08.764Z,44.60
2022-10-12T09:49:11.684Z,47.80
2022-10-12T09:52:15.785Z,46.50
2022-10-12T09:58:51.505Z,42.80
2022-10-12T10:02:00.055Z,43.20
2022-10-12T10:05:24.467Z,40.50
2022-10-12T10:08:26.649Z,41.40
2022-10-12T10:11:33.647Z,38.60
2022-10-12T10:14:36.886Z,40.80
2022-10-12T10:17:39.084Z,39.90
2022-10-12T10:20:52.320Z,40.00
2022-10-12T10:24:00.322Z,39.40
2022-10-12T10:27:05.504Z,41.00
2022-10-12T10:30:40.781Z,39.50
2022-10-12T10:33:44.742Z,41.30
2022-10-12T10:36:52.888Z,41.00
2022-10-12T10:39:57.659Z,40.70
2022-10-12T10:43:07.176Z,41.40
2022-10-12T10:46:09.290Z,39.80
2022-10-12T10:49:28.432Z,39.20
2022-10-12T10:52:35.398Z,41.60
2022-10-12T10:55:59.327Z,41.20
2022-10-12T10:59:15.133Z,40.90
2022-10-12T11:02:42.929Z,40.90
2022-10-12T11:05:51.242Z,40.20
2022-10-12T11:09:06.741Z,42.70
2022-10-12T11:12:19.477Z,42.60
2022-10-12T11:15:29.982Z,42.50
2022-10-12T11:18:54.355Z,42.00
2022-10-12T11:22:00.534Z,42.90
2022-10-12T11:25:31.406Z,43.40
2022-10-12T11:28:34.871Z,44.60
2022-10-12T11:31:39.856Z,47.30
2022-10-12T11:35:05.188Z,47.60
2022-10-12T11:38:21.578Z,52.20
2022-10-12T11:41:52.527Z,55.30
2022-10-12T11:44:48.962Z,58.30
2022-10-12T11:47:58.292Z,60.90
2022-10-12T11:51:04.056Z,63.00
2022-10-12T11:54:38.144Z,64.90
2022-10-12T11:57:40.388Z,66.30
2022-10-12T12:00:54.579Z,67.80
2022-10-12T12:07:53.925Z,70.30
2022-10-12T12:11:29.620Z,71.80
2022-10-12T12:14:31.687Z,72.40
2022-10-12T12:17:35.564Z,73.80
2022-10-12T12:20:43.726Z,74.70
2022-10-12T12:23:54.631Z,75.10
2022-10-12T12:26:56.727Z,75.10
2022-10-12T12:30:00.910Z,75.20
2022-10-12T12:33:07.749Z,75.10
2022-10-12T12:36:35.173Z,75.80
2022-10-12T12:39:39.143Z,75.30
2022-10-12T12:42:41.259Z,76.60
2022-10-12T12:46:16.529Z,77.20
2022-10-12T12:49:48.856Z,76.90
2022-10-12T12:52:52.866Z,77.70
2022-10-12T12:56:08.035Z,76.90
2022-10-12T12:59:34.916Z,76.40
2022-10-12T13:02:59.443Z,76.40
2022-10-12T13:06:13.357Z,76.60
2022-10-12T13:09:42.304Z,76.50
2022-10-12T13:12:55.783Z,76.70
2022-10-12T13:16:36.713Z,77.10
2022-10-12T13:19:38.476Z,76.50
2022-10-12T13:22:41.072Z,76.60
2022-10-12T13:25:51.527Z,75.70
2022-10-12T13:28:57.308Z,74.50
2022-10-12T13:32:00.868Z,74.80
2022-10-12T13:35:12.048Z,75.00
2022-10-12T13:38:19.667Z,75.60
2022-10-12T13:41:22.114Z,75.60
2022-10-12T13:44:34.777Z,75.90
2022-10-12T13:47:43.523Z,76.20
2022-10-12T13:51:02.958Z,76.20
2022-10-12T13:54:25.591Z,75.70
2022-10-12T13:57:50.187Z,75.30
2022-10-12T14:00:52.649Z,76.00
2022-10-12T14:04:05.709Z,75.80
2022-10-12T14:07:18.023Z,76.60
2022-10-12T14:10:34.383Z,77.30
2022-10-12T14:13:36.630Z,77.70
2022-10-12T14:16:38.678Z,78.00
2022-10-12T14:19:45.604Z,78.40
2022-10-12T14:22:49.837Z,78.40
2022-10-12T14:25:56.198Z,78.50
2022-10-12T14:28:59.926Z,78.20
2022-10-12T14:32:08.412Z,77.60
2022-10-12T14:35:22.012Z,78.10
2022-10-12T14:38:40.626Z,78.10
2022-10-12T14:41:51.377Z,78.40
2022-10-12T14:44:53.550Z,78.20
2022-10-12T14:47:56.027Z,78.10
2022-10-12T14:50:58.212Z,78.80
2022-10-12T14:54:01.737Z,79.10
2022-10-12T14:57:17.082Z,79.60
2022-10-12T15:00:22.033Z,80.10
2022-10-12T15:03:24.142Z,79.60
2022-10-12T15:06:26.242Z,79.80
2022-10-12T15:09:28.277Z,80.10
2022-10-12T15:12:30.891Z,80.30
2022-10-12T15:15:46.583Z,79.50
2022-10-12T15:18:48.916Z,80.20
2022-10-12T15:21:51.301Z,79.90
2022-10-12T15:24:54.722Z,80.00
2022-10-12T15:27:57.170Z,79.80
2022-10-12T15:31:18.878Z,79.40
2022-10-12T15:34:21.303Z,78.90
2022-10-12T15:37:26.400Z,79.10
2022-10-12T15:40:29.861Z,79.50
2022-10-12T15:43:38.070Z,79.40
2022-10-12T15:46:44.284Z,79.50
2022-10-12T15:49:46.495Z,80.00
2022-10-12T15:52:48.696Z,80.10
2022-10-12T15:55:51.995Z,80.20
2022-10-12T15:58:54.003Z,80.20
2022-10-12T16:01:58.100Z,80.50
2022-10-12T16:05:00.198Z,80.80
2022-10-12T16:08:04.998Z,81.30
2022-10-12T16:11:09.536Z,81.20
2022-10-12T16:14:14.444Z,80.90
2022-10-12T16:17:16.875Z,80.90
2022-10-12T16:20:19.621Z,80.40
2022-10-12T16:23:27.977Z,80.90
2022-10-12T16:26:30.076Z,80.90
2022-10-12T16:29:32.721Z,83.00
2022-10-12T16:32:35.062Z,85.20
2022-10-12T16:35:42.209Z,85.20
2022-10-12T16:38:44.882Z,86.10
2022-10-12T16:41:47.091Z,86.30
2022-10-12T16:44:49.515Z,86.70
2022-10-12T16:47:52.339Z,87.90
2022-10-12T16:50:54.373Z,88.50
2022-10-12T16:53:57.259Z,88.90
2022-10-12T16:56:59.480Z,90.00
2022-10-12T17:00:02.191Z,90.10
2022-10-12T17:03:04.301Z,90.40
2022-10-12T17:06:06.737Z,90.30
2022-10-12T17:09:09.330Z,90.40
2022-10-12T17:12:11.724Z,90.10
2022-10-12T17:15:13.882Z,90.30
2022-10-12T17:18:15.952Z,90.20
2022-10-12T17:21:17.995Z,90.10
2022-10-12T17:24:21.942Z,89.80
2022-10-12T17:27:27.434Z,89.60
2022-10-12T17:30:38.434Z,88.90
2022-10-12T17:33:40.490Z,88.90
2022-10-12T17:36:42.596Z,88.40
2022-10-12T17:39:48.412Z,88.70
2022-10-12T17:42:50.460Z,89.10
2022-10-12T17:45:52.596Z,88.60
2022-10-12T17:48:56.241Z,89.30
2022-10-12T17:51:58.520Z,88.20
2022-10-12T17:55:01.205Z,88.80
2022-10-12T17:58:04.309Z,88.40
2022-10-12T18:01:12.813Z,89.10
2022-10-12T18:04:15.189Z,89.70
2022-10-12T18:07:17.498Z,89.20
2022-10-12T18:10:22.388Z,89.40
2022-10-12T18:13:27.794Z,90.20
2022-10-12T18:16:33.467Z,90.20
2022-10-12T18:19:35.639Z,90.10
2022-10-12T18:22:37.736Z,90.20
2022-10-12T18:25:47.468Z,90.40
2022-10-12T18:28:50.803Z,90.30
2022-10-12T18:31:54.173Z,90.40
2022-10-12T18:34:59.246Z,90.60
2022-10-12T18:38:01.694Z,90.60
2022-10-12T18:41:08.058Z,90.70
2022-10-12T18:44:11.348Z,90.50
2022-10-12T18:47:13.790Z,91.20
2022-10-12T18:50:16.070Z,91.20
2022-10-12T18:53:20.235Z,91.60
2022-10-12T18:56:22.855Z,91.40
2022-10-12T18:59:24.996Z,91.40
2022-10-12T19:02:27.050Z,91.40
2022-10-12T19:05:29.225Z,91.70
2022-10-12T19:08:31.660Z,91.80
2022-10-12T19:11:37.403Z,91.80
2022-10-12T19:14:39.564Z,91.90
2022-10-12T19:17:42.882Z,91.80
2022-10-12T19:20:45.049Z,92.00
2022-10-12T19:23:47.275Z,92.10
2022-10-12T19:26:49.667Z,92.30
2022-10-12T19:29:51.881Z,92.30
2022-10-12T19:32:54.004Z,92.60
2022-10-12T19:35:56.271Z,92.60
2022-10-12T19:38:59.968Z,92.70
2022-10-12T19:42:02.095Z,92.90
2022-10-12T19:45:04.628Z,92.70
2022-10-12T19:48:07.862Z,93.30
2022-10-12T19:51:12.745Z,93.20
2022-10-12T19:54:15.655Z,92.80
2022-10-12T19:57:17.716Z,92.90
2022-10-12T20:00:19.977Z,93.10
2022-10-12T20:03:22.163Z,92.90
2022-10-12T20:06:26.323Z,92.90
2022-10-12T20:09:28.347Z,93.20
2022-10-12T20:12:30.614Z,92.80
2022-10-12T20:15:32.667Z,92.90
2022-10-12T20:18:35.917Z,92.90
2022-10-12T20:21:37.969Z,92.90
2022-10-12T20:24:42.907Z,93.10
2022-10-12T20:27:45.170Z,92.80
2022-10-12T20:30:52.380Z,92.70
2022-10-12T20:33:56.145Z,92.80
2022-10-12T20:36:58.203Z,92.50
2022-10-12T20:40:00.295Z,92.70
2022-10-12T20:43:02.314Z,92.60
2022-10-12T20:46:06.885Z,92.50
2022-10-12T20:49:11.355Z,92.80
2022-10-12T20:52:13.348Z,92.40
2022-10-12T20:55:15.563Z,92.60
2022-10-12T20:58:18.578Z,92.40
2022-10-12T21:01:20.785Z,92.20
2022-10-12T21:04:22.866Z,92.10
2022-10-12T21:07:26.064Z,92.00
2022-10-12T21:10:28.360Z,92.00
2022-10-12T21:13:39.300Z,92.30
2022-10-12T21:16:43.682Z,92.60
2022-10-12T21:19:45.858Z,92.70
2022-10-12T21:22:49.122Z,92.80
2022-10-12T21:25:52.559Z,93.10
2022-10-12T21:28:55.059Z,93.10
2022-10-12T21:31:57.424Z,93.20
2022-10-12T21:34:59.458Z,93.30
2022-10-12T21:38:01.619Z,93.40
2022-10-12T21:41:05.803Z,93.40
2022-10-12T21:44:08.775Z,93.40
2022-10-12T21:47:13.856Z,93.50
2022-10-12T21:50:19.432Z,93.60
2022-10-12T21:53:21.503Z,93.80
2022-10-12T21:56:35.237Z,93.80
2022-10-12T21:59:37.872Z,93.90
2022-10-12T22:02:42.174Z,94.10
2022-10-12T22:05:44.876Z,94.20
2022-10-12T22:08:58.904Z,94.20
2022-10-12T22:12:00.946Z,94.40
2022-10-12T22:15:03.111Z,94.40
2022-10-12T22:18:05.216Z,94.50
2022-10-12T22:21:10.707Z,94.50
2022-10-12T22:24:16.577Z,94.60
2022-10-12T22:27:18.901Z,94.50
2022-10-12T22:30:21.334Z,94.50
2022-10-12T22:33:24.059Z,94.30
2022-10-12T22:36:26.533Z,94.50
2022-10-12T22:39:28.575Z,94.50
2022-10-12T22:42:30.780Z,94.70
2022-10-12T22:45:33.317Z,94.80
2022-10-12T22:48:36.829Z,94.80
2022-10-12T22:51:42.208Z,94.70
2022-10-12T22:54:44.580Z,95.20
2022-10-12T22:57:46.941Z,95.30
2022-10-12T23:00:49.090Z,95.40
2022-10-12T23:03:51.162Z,95.50
2022-10-12T23:06:53.201Z,95.60
2022-10-12T23:09:55.351Z,95.70
2022-10-12T23:12:58.636Z,95.80
2022-10-12T23:16:12.101Z,95.60
2022-10-12T23:19:14.219Z,95.70
2022-10-12T23:22:16.653Z,95.70
2022-10-12T23:25:19.159Z,96.00
2022-10-12T23:28:21.315Z,95.80
2022-10-12T23:31:36.809Z,95.90
2022-10-12T23:34:38.959Z,95.70
2022-10-12T23:37:44.306Z,95.70
2022-10-12T23:40:46.600Z,95.90
2022-10-12T23:43:48.804Z,95.70
2022-10-12T23:50:07.457Z,95.80
2022-10-12T23:53:10.647Z,95.70
2022-10-12T23:56:13.635Z,95.80
2022-10-12T23:59:17.113Z,95.90
